»·PEaware :: ASA9571 KPDX-KSFO

ASA9571 :: KPDX-KSFO

FLIGHT INFORMATION

Flight Status: Arrived
Operator:
Alaska Airlines
More flights by this operator :: More flights under this callsign
Pilot: Christopher C. (18958)
Aircraft: DEHAVILLAND DASH 8 400
(DH8D)
More flights by this aircraft type
Origin: KPDX Portland Intl
United States
Destination: KSFO San Francisco Intl
United States
More flights between these airports :: More routes between these airports
Route: +PTLD1 EUG MLBEC BDEGA3
File this flight plan on PilotEdge
Remarks: RMK / SIMBRIEF
Altitude:
(Current/Filed)
23,000ft
Speed:
(Current/Filed)
363kts
Departed: 07-Apr-19 03:35 PM
Arrived: 07-Apr-19 05:24 PM
Distance/Time
Traveled:
478nm/1:49
Distance/Time
To Go:
Arrived

Flight Plot

Page will automatically refresh every two minutes.

Flight plan parsing failed; only flown route is shown


Map Options




Map Legend


Flown Route
Filed Route
Departure Airport
Arrival Airport
Navaid (VOR, NDB)
Fix

Horizontal Profiles

Position Reports

Time Latitude Longitude Heading Altitude Ground
Speed
07-Apr-19 14:34 45.585914 -122.591939 14 37ft 0kts
07-Apr-19 14:35 45.585914 -122.591939 14 37ft 0kts
07-Apr-19 14:36 45.585914 -122.591939 14 37ft 0kts
07-Apr-19 14:37 45.585914 -122.591939 14 37ft 0kts
07-Apr-19 14:38 45.585914 -122.591939 14 37ft 0kts
07-Apr-19 14:39 45.585914 -122.591939 14 37ft 0kts
07-Apr-19 14:40 45.585914 -122.591939 14 37ft 0kts
07-Apr-19 14:41 45.585914 -122.591939 14 37ft 0kts
07-Apr-19 14:42 45.585914 -122.591939 14 37ft 0kts
07-Apr-19 14:43 45.585914 -122.591939 14 37ft 0kts
07-Apr-19 14:45 45.585914 -122.591939 14 37ft 0kts
07-Apr-19 14:46 45.585914 -122.591939 14 37ft 0kts
07-Apr-19 14:47 45.585914 -122.591939 14 37ft 0kts
07-Apr-19 14:48 45.585914 -122.591939 14 37ft 0kts
07-Apr-19 14:49 45.585914 -122.591939 14 37ft 0kts
07-Apr-19 14:50 45.585914 -122.591939 14 37ft 0kts
07-Apr-19 14:51 45.585914 -122.591939 14 37ft 0kts
07-Apr-19 14:52 45.585914 -122.591939 14 37ft 0kts
07-Apr-19 14:53 45.585914 -122.591939 14 37ft 0kts
07-Apr-19 14:54 45.585914 -122.591939 14 37ft 0kts
07-Apr-19 14:55 45.585914 -122.591939 14 37ft 0kts
07-Apr-19 14:56 45.585914 -122.591939 14 37ft 0kts
07-Apr-19 14:57 45.585914 -122.591939 14 37ft 0kts
07-Apr-19 14:58 45.585914 -122.591939 14 37ft 0kts
07-Apr-19 14:59 45.585914 -122.591939 14 37ft 0kts
07-Apr-19 15:00 45.585914 -122.591939 14 37ft 0kts
07-Apr-19 15:01 45.585914 -122.591939 14 37ft 0kts
07-Apr-19 15:02 45.585914 -122.591939 14 37ft 0kts
07-Apr-19 15:03 45.585914 -122.591939 14 37ft 0kts
07-Apr-19 15:04 45.585914 -122.591939 14 37ft 0kts
07-Apr-19 15:04 45.585914 -122.591939 14 37ft 0kts
07-Apr-19 15:06 45.585914 -122.591939 14 37ft 0kts
07-Apr-19 15:07 45.585914 -122.591939 14 37ft 0kts
07-Apr-19 15:07 45.585914 -122.591939 14 37ft 0kts
07-Apr-19 15:08 45.585914 -122.591939 14 37ft 0kts
07-Apr-19 15:10 45.585914 -122.591939 14 37ft 0kts
07-Apr-19 15:11 45.585914 -122.591939 14 37ft 0kts
07-Apr-19 15:11 45.585914 -122.591939 14 37ft 0kts
07-Apr-19 15:12 45.585914 -122.591939 14 37ft 0kts
07-Apr-19 15:13 45.585914 -122.591939 14 37ft 0kts
07-Apr-19 15:14 45.585914 -122.591939 14 37ft 0kts
07-Apr-19 15:15 45.585914 -122.591939 14 37ft 0kts
07-Apr-19 15:16 45.585914 -122.591939 14 37ft 0kts
07-Apr-19 15:17 45.585914 -122.591939 14 37ft 0kts
07-Apr-19 15:18 45.585488 -122.592069 1 37ft 2kts
07-Apr-19 15:19 45.585194 -122.591861 310 37ft 0kts
07-Apr-19 15:20 45.585194 -122.591861 310 37ft 0kts
07-Apr-19 15:21 45.585194 -122.591861 310 37ft 0kts
07-Apr-19 15:22 45.585194 -122.591861 310 37ft 0kts
07-Apr-19 15:23 45.585194 -122.591861 310 37ft 0kts
07-Apr-19 15:24 45.585194 -122.591861 310 37ft 0kts
07-Apr-19 15:25 45.585194 -122.591861 310 37ft 0kts
07-Apr-19 15:26 45.586085 -122.593380 308 37ft 13kts
07-Apr-19 15:27 45.588552 -122.599128 300 37ft 19kts
07-Apr-19 15:28 45.591261 -122.600551 53 37ft 15kts
07-Apr-19 15:29 45.593946 -122.598079 3 37ft 8kts
07-Apr-19 15:30 45.594396 -122.597580 47 37ft 0kts
07-Apr-19 15:31 45.594396 -122.597580 47 37ft 0kts
07-Apr-19 15:32 45.594422 -122.597539 47 37ft 0kts
07-Apr-19 15:33 45.594424 -122.597537 48 37ft 0kts
07-Apr-19 15:34 45.592955 -122.590886 119 37ft 85kts
07-Apr-19 15:35 45.574755 -122.541722 118 1649ft 161kts
07-Apr-19 15:36 45.548171 -122.479890 148 3924ft 191kts
07-Apr-19 15:37 45.497818 -122.492085 203 6709ft 189kts
07-Apr-19 15:38 45.447094 -122.519062 204 9389ft 196kts
07-Apr-19 15:39 45.393658 -122.546972 207 11618ft 213kts
07-Apr-19 15:40 45.338103 -122.576073 208 13756ft 208kts
07-Apr-19 15:41 45.285361 -122.604111 210 15824ft 195kts
07-Apr-19 15:42 45.235951 -122.630308 211 17704ft 183kts
07-Apr-19 15:43 45.189019 -122.655208 212 19361ft 176kts
07-Apr-19 15:44 45.142212 -122.680242 213 20605ft 181kts
07-Apr-19 15:45 45.094197 -122.705948 214 21752ft 186kts
07-Apr-19 15:46 45.044855 -122.732404 214 22797ft 190kts
07-Apr-19 15:47 44.992350 -122.760988 214 23136ft 218kts
07-Apr-19 15:48 44.931842 -122.794335 212 23138ft 246kts
07-Apr-19 15:49 44.865493 -122.830353 211 23133ft 263kts
07-Apr-19 15:50 44.795235 -122.868217 211 23132ft 277kts
07-Apr-19 15:51 44.721789 -122.907546 210 23132ft 287kts
07-Apr-19 15:52 44.646533 -122.947584 210 23134ft 293kts
07-Apr-19 15:53 44.569972 -122.988107 210 23135ft 296kts
07-Apr-19 15:54 44.492487 -123.028995 210 23135ft 299kts
07-Apr-19 15:55 44.414537 -123.070056 209 23134ft 300kts
07-Apr-19 15:56 44.336274 -123.111019 209 23133ft 302kts
07-Apr-19 15:57 44.257709 -123.151984 209 23131ft 302kts
07-Apr-19 15:58 44.178714 -123.192958 209 23129ft 303kts
07-Apr-19 15:59 44.096273 -123.221477 190 23130ft 324kts
07-Apr-19 16:00 44.005887 -123.217580 188 23128ft 326kts
07-Apr-19 16:01 43.915210 -123.212910 187 23128ft 328kts
07-Apr-19 16:02 43.823883 -123.207635 188 23127ft 330kts
07-Apr-19 16:03 43.731993 -123.202703 188 23126ft 331kts
07-Apr-19 16:04 43.640149 -123.197709 188 23124ft 332kts
07-Apr-19 16:05 43.547891 -123.192712 188 23123ft 332kts
07-Apr-19 16:06 43.455529 -123.187771 188 23121ft 333kts
07-Apr-19 16:07 43.363082 -123.182850 188 23120ft 333kts
07-Apr-19 16:08 43.270990 -123.177896 188 23120ft 332kts
07-Apr-19 16:09 43.178763 -123.173032 188 23120ft 333kts
07-Apr-19 16:10 43.086603 -123.168436 187 23124ft 330kts
07-Apr-19 16:11 42.996235 -123.163300 187 23129ft 321kts
07-Apr-19 16:12 42.907499 -123.158694 187 23137ft 319kts
07-Apr-19 16:13 42.819138 -123.154099 187 23144ft 318kts
07-Apr-19 16:14 42.730923 -123.149424 187 23150ft 318kts
07-Apr-19 16:15 42.642425 -123.144846 187 23152ft 319kts
07-Apr-19 16:16 42.553948 -123.140221 186 23155ft 319kts
07-Apr-19 16:17 42.465120 -123.135530 186 23156ft 320kts
07-Apr-19 16:18 42.376249 -123.130998 186 23157ft 321kts
07-Apr-19 16:19 42.287006 -123.126315 186 23158ft 321kts
07-Apr-19 16:20 42.197883 -123.121760 186 23160ft 322kts
07-Apr-19 16:21 42.108404 -123.117119 186 23161ft 323kts
07-Apr-19 16:22 42.018624 -123.112507 187 23163ft 323kts
07-Apr-19 16:23 41.928747 -123.108068 186 23166ft 325kts
07-Apr-19 16:24 41.838539 -123.103336 186 23168ft 327kts
07-Apr-19 16:25 41.747781 -123.098679 187 23173ft 325kts
07-Apr-19 16:26 41.658263 -123.094048 187 23191ft 318kts
07-Apr-19 16:27 41.570246 -123.089706 187 23201ft 318kts
07-Apr-19 16:28 41.481982 -123.085301 187 23199ft 318kts
07-Apr-19 16:29 41.393586 -123.080802 187 23204ft 319kts
07-Apr-19 16:30 41.305090 -123.076405 187 23211ft 319kts
07-Apr-19 16:31 41.216254 -123.071958 187 23233ft 321kts
07-Apr-19 16:32 41.126645 -123.067529 187 23237ft 325kts
07-Apr-19 16:33 41.036075 -123.063006 187 23242ft 328kts
07-Apr-19 16:34 40.944860 -123.058456 187 23248ft 330kts
07-Apr-19 16:35 40.852906 -123.053852 187 23252ft 332kts
07-Apr-19 16:36 40.760702 -123.049361 187 23255ft 333kts
07-Apr-19 16:37 40.667845 -123.044802 187 23254ft 334kts
07-Apr-19 16:38 40.575022 -123.040260 187 23252ft 335kts
07-Apr-19 16:39 40.482242 -123.035713 187 23252ft 335kts
07-Apr-19 16:40 40.389175 -123.031128 187 23251ft 335kts
07-Apr-19 16:41 40.296093 -123.026617 187 23248ft 335kts
07-Apr-19 16:42 40.202962 -123.022097 187 23246ft 335kts
07-Apr-19 16:43 40.110313 -123.017644 187 23250ft 334kts
07-Apr-19 16:44 40.017226 -123.013107 187 23253ft 335kts
07-Apr-19 16:45 39.924469 -123.008664 187 23245ft 336kts
07-Apr-19 16:46 39.830970 -123.004207 187 23244ft 336kts
07-Apr-19 16:47 39.737851 -122.999822 187 23248ft 336kts
07-Apr-19 16:48 39.644435 -122.995275 187 23252ft 337kts
07-Apr-19 16:49 39.551409 -122.990807 187 23257ft 334kts
07-Apr-19 16:50 39.458215 -122.986455 187 23258ft 336kts
07-Apr-19 16:51 39.365142 -122.982030 187 23261ft 336kts
07-Apr-19 16:52 39.271751 -122.977604 187 23263ft 336kts
07-Apr-19 16:53 39.178397 -122.973312 187 23264ft 337kts
07-Apr-19 16:54 39.084876 -122.968839 187 23265ft 337kts
07-Apr-19 16:55 38.991462 -122.964432 187 23266ft 337kts
07-Apr-19 16:57 38.898072 -122.960088 187 23267ft 337kts
07-Apr-19 16:58 38.804227 -122.938434 175 23269ft 349kts
07-Apr-19 16:59 38.709876 -122.909987 176 23272ft 348kts
07-Apr-19 17:00 38.615888 -122.882433 176 23273ft 348kts
07-Apr-19 17:01 38.521714 -122.854665 176 23274ft 348kts
07-Apr-19 17:02 38.427219 -122.826965 176 22958ft 350kts
07-Apr-19 17:03 38.333519 -122.799555 176 21268ft 344kts
07-Apr-19 17:04 38.241164 -122.772586 175 19587ft 340kts
07-Apr-19 17:05 38.151098 -122.746227 175 18405ft 325kts
07-Apr-19 17:06 38.064951 -122.721179 175 17533ft 312kts
07-Apr-19 17:07 37.981102 -122.696902 175 16751ft 307kts
07-Apr-19 17:08 37.898468 -122.672627 169 15995ft 308kts
07-Apr-19 17:09 37.828117 -122.597833 142 13224ft 336kts
07-Apr-19 17:10 37.760586 -122.525260 147 11580ft 309kts
07-Apr-19 17:11 37.697013 -122.459158 144 11024ft 283kts
07-Apr-19 17:12 37.639018 -122.396865 144 10999ft 256kts
07-Apr-19 17:13 37.582118 -122.343161 154 10611ft 256kts
07-Apr-19 17:14 37.521400 -122.297857 154 8812ft 252kts
07-Apr-19 17:15 37.471799 -122.240276 118 7013ft 247kts
07-Apr-19 17:16 37.442430 -122.166254 118 5207ft 228kts
07-Apr-19 17:17 37.469399 -122.110726 351 3854ft 208kts
07-Apr-19 17:17 37.508382 -122.136689 321 3118ft 172kts
07-Apr-19 17:18 37.536445 -122.183157 298 3017ft 173kts
07-Apr-19 17:20 37.562309 -122.240154 295 2096ft 131kts
07-Apr-19 17:21 37.578701 -122.279063 294 1426ft 124kts
07-Apr-19 17:21 37.591949 -122.311372 295 871ft 121kts
07-Apr-19 17:22 37.607430 -122.348442 300 257ft 116kts
07-Apr-19 17:24 37.619110 -122.375840 298 20ft 26kts
07-Apr-19 17:24 37.619239 -122.379811 206 20ft 5kts
07-Apr-19 17:25 37.616596 -122.379649 202 20ft 12kts
07-Apr-19 17:26 37.616225 -122.380692 340 20ft 1kts
07-Apr-19 17:27 37.616465 -122.380798 341 20ft 0kts
07-Apr-19 17:28 37.616465 -122.380798 341 20ft 0kts
07-Apr-19 17:29 37.616465 -122.380798 341 20ft 0kts
07-Apr-19 17:30 37.616465 -122.380798 341 20ft 0kts

Navigation Log

Ident Type
Flight plan parsing failed, navigation log unavailable